createdAt,value
2018-05-18T00:02:26.009Z,20.45
2018-05-18T00:04:54.305Z,17.90
2018-05-18T00:07:22.562Z,19.77
2018-05-18T00:09:50.840Z,21.20
2018-05-18T00:12:19.128Z,17.60
2018-05-18T00:14:47.393Z,21.83
2018-05-18T00:17:15.652Z,21.65
2018-05-18T00:19:43.960Z,19.75
2018-05-18T00:22:12.418Z,17.27
2018-05-18T00:24:41.440Z,15.43
2018-05-18T00:27:09.689Z,20.88
2018-05-18T00:29:37.961Z,24.45
2018-05-18T00:32:06.217Z,14.63
2018-05-18T00:34:34.486Z,14.43
2018-05-18T00:37:03.524Z,20.67
2018-05-18T00:39:31.789Z,19.35
2018-05-18T00:42:00.082Z,20.42
2018-05-18T00:44:28.356Z,18.55
2018-05-18T00:46:56.620Z,16.17
2018-05-18T00:49:24.881Z,17.92
2018-05-18T00:51:53.149Z,16.27
2018-05-18T00:54:21.421Z,18.30
2018-05-18T00:56:49.725Z,14.98
2018-05-18T00:59:18.010Z,16.17
2018-05-18T01:01:46.266Z,21.55
2018-05-18T01:04:14.571Z,16.33
2018-05-18T01:06:42.827Z,20.70
2018-05-18T01:09:11.089Z,16.52
2018-05-18T01:11:39.362Z,26.25
2018-05-18T01:14:07.666Z,21.02
2018-05-18T01:16:36.307Z,20.42
2018-05-18T01:19:04.633Z,21.23
2018-05-18T01:21:32.902Z,19.08
2018-05-18T01:24:01.169Z,23.05
2018-05-18T01:26:29.452Z,22.42
2018-05-18T01:28:57.729Z,22.30
2018-05-18T01:31:25.994Z,26.15
2018-05-18T01:33:54.280Z,26.83
2018-05-18T01:36:22.673Z,18.48
2018-05-18T01:38:50.933Z,22.33
2018-05-18T01:41:19.199Z,23.02
2018-05-18T01:43:47.480Z,22.73
2018-05-18T01:46:15.757Z,22.27
2018-05-18T01:48:44.032Z,21.73
2018-05-18T01:51:12.313Z,22.40
2018-05-18T01:53:40.564Z,27.67
2018-05-18T01:56:08.865Z,14.32
2018-05-18T01:58:37.102Z,25.08
2018-05-18T02:01:05.398Z,16.83
2018-05-18T02:03:33.638Z,22.40
2018-05-18T02:06:02.672Z,19.15
2018-05-18T02:08:30.947Z,21.80
2018-05-18T02:10:59.218Z,21.77
2018-05-18T02:13:27.490Z,20.23
2018-05-18T02:15:55.752Z,20.80
2018-05-18T02:18:24.052Z,20.85
2018-05-18T02:20:52.304Z,20.67
2018-05-18T02:23:20.589Z,19.67
2018-05-18T02:25:48.867Z,22.13
2018-05-18T02:28:17.113Z,19.70
2018-05-18T02:30:46.132Z,19.98
2018-05-18T02:33:14.387Z,21.42
2018-05-18T02:35:42.639Z,20.98
2018-05-18T02:38:10.976Z,20.12
2018-05-18T02:40:39.215Z,16.12
2018-05-18T02:43:07.463Z,20.75
2018-05-18T02:45:35.802Z,21.33
2018-05-18T02:48:04.072Z,17.33
2018-05-18T02:50:32.342Z,22.20
2018-05-18T02:53:00.588Z,17.58
2018-05-18T02:55:29.606Z,21.80
2018-05-18T02:57:57.870Z,18.80
2018-05-18T03:00:26.170Z,20.12
2018-05-18T03:02:54.486Z,18.73
2018-05-18T03:05:22.716Z,20.65
2018-05-18T03:07:50.966Z,18.37
2018-05-18T03:10:19.207Z,23.90
2018-05-18T03:12:48.225Z,20.27
2018-05-18T03:15:17.230Z,20.50
2018-05-18T03:17:45.487Z,18.00
2018-05-18T03:20:14.508Z,26.15
2018-05-18T03:22:42.771Z,19.45
2018-05-18T03:25:11.066Z,21.65
2018-05-18T03:27:39.338Z,27.08
2018-05-18T03:30:07.617Z,23.58
2018-05-18T03:32:35.871Z,25.65
2018-05-18T03:35:04.118Z,24.48
2018-05-18T03:37:33.137Z,22.80
2018-05-18T03:40:01.390Z,25.95
2018-05-18T03:42:30.426Z,20.92
2018-05-18T03:44:58.683Z,21.80
2018-05-18T03:47:26.934Z,27.30
2018-05-18T03:49:55.951Z,29.67
2018-05-18T03:52:24.255Z,24.08
2018-05-18T03:54:52.531Z,24.60
2018-05-18T03:57:20.812Z,28.77
2018-05-18T03:59:49.063Z,23.30
2018-05-18T04:02:29.339Z,23.20
2018-05-18T04:05:09.459Z,26.70
2018-05-18T04:07:48.358Z,24.87
2018-05-18T04:10:17.321Z,25.17
2018-05-18T04:12:45.570Z,27.15
2018-05-18T04:15:13.833Z,23.65
2018-05-18T04:17:42.083Z,22.58
2018-05-18T04:20:11.147Z,20.17
2018-05-18T04:22:39.395Z,20.85
2018-05-18T04:25:07.691Z,24.23
2018-05-18T04:27:35.963Z,25.27
2018-05-18T04:30:04.311Z,21.23
2018-05-18T04:32:32.519Z,23.12
2018-05-18T04:35:00.783Z,24.37
2018-05-18T04:37:29.058Z,22.37
2018-05-18T04:39:57.323Z,22.48
2018-05-18T04:42:25.572Z,24.60
2018-05-18T04:44:53.841Z,22.17
2018-05-18T04:47:22.874Z,25.33
2018-05-18T04:49:51.167Z,22.08
2018-05-18T04:52:19.426Z,18.87
2018-05-18T04:54:47.689Z,17.27
2018-05-18T04:57:15.934Z,22.10
2018-05-18T04:59:44.976Z,19.37
2018-05-18T05:02:13.221Z,18.45
2018-05-18T05:04:41.518Z,19.83
2018-05-18T05:07:09.770Z,19.83
2018-05-18T05:09:38.030Z,15.63
2018-05-18T05:12:07.068Z,20.98
2018-05-18T05:14:35.321Z,19.05
2018-05-18T05:17:03.621Z,18.40
2018-05-18T05:19:31.894Z,17.25
2018-05-18T05:22:00.137Z,23.77
2018-05-18T05:24:28.386Z,19.95
2018-05-18T05:26:56.723Z,21.40
2018-05-18T05:29:24.971Z,17.02
2018-05-18T05:31:53.221Z,25.80
2018-05-18T05:34:22.315Z,23.30
2018-05-18T05:36:51.339Z,22.08
2018-05-18T05:39:19.626Z,18.98
2018-05-18T05:41:47.904Z,20.50
2018-05-18T05:44:16.180Z,23.40
2018-05-18T05:46:44.460Z,22.98
2018-05-18T05:49:12.706Z,26.23
2018-05-18T05:51:40.965Z,26.52
2018-05-18T05:54:09.994Z,25.20
2018-05-18T05:56:38.274Z,22.85
2018-05-18T05:59:06.519Z,19.55
2018-05-18T06:01:35.555Z,23.08
2018-05-18T06:04:03.807Z,21.30
2018-05-18T06:06:32.059Z,25.33
2018-05-18T06:09:01.095Z,18.65
2018-05-18T06:11:29.350Z,18.73
2018-05-18T06:13:57.594Z,22.08
2018-05-18T06:16:26.615Z,27.65
2018-05-18T06:18:54.859Z,22.20
2018-05-18T06:21:23.878Z,21.37
2018-05-18T06:23:52.170Z,34.35
2018-05-18T06:26:20.427Z,20.83
2018-05-18T06:28:48.772Z,21.37
2018-05-18T06:31:17.704Z,24.73
2018-05-18T06:33:46.015Z,24.12
2018-05-18T06:36:14.371Z,22.48
2018-05-18T06:38:42.621Z,23.25
2018-05-18T06:41:10.984Z,20.33
2018-05-18T06:43:39.192Z,23.02
2018-05-18T06:46:07.435Z,28.52
2018-05-18T06:48:36.477Z,22.40
2018-05-18T06:51:04.848Z,27.58
2018-05-18T06:53:33.090Z,24.02
2018-05-18T06:56:01.395Z,21.87
2018-05-18T06:58:29.680Z,21.98
2018-05-18T07:00:57.918Z,23.08
2018-05-18T07:03:26.228Z,22.42
2018-05-18T07:05:54.498Z,25.30
2018-05-18T07:08:22.759Z,24.58
2018-05-18T07:10:51.054Z,19.70
2018-05-18T07:13:19.302Z,26.20
2018-05-18T07:15:47.546Z,25.90
2018-05-18T07:18:16.586Z,23.87
2018-05-18T07:20:44.834Z,30.98
2018-05-18T07:23:13.094Z,27.77
2018-05-18T07:25:42.119Z,37.25
2018-05-18T07:28:10.389Z,24.63
2018-05-18T07:30:38.648Z,22.40
2018-05-18T07:33:07.770Z,30.37
2018-05-18T07:35:36.019Z,32.08
2018-05-18T07:38:04.431Z,26.25
2018-05-18T07:40:32.754Z,30.20
2018-05-18T07:43:01.086Z,20.02
2018-05-18T07:45:29.698Z,24.37
2018-05-18T07:47:57.961Z,20.77
2018-05-18T07:50:26.226Z,24.45
2018-05-18T07:52:54.480Z,25.05
2018-05-18T07:55:22.726Z,22.02
2018-05-18T07:57:51.755Z,18.35
2018-05-18T08:00:20.012Z,20.42
2018-05-18T08:02:48.270Z,19.33
2018-05-18T08:05:17.295Z,16.50
2018-05-18T08:07:45.550Z,21.50
2018-05-18T08:10:13.869Z,20.95
2018-05-18T08:12:42.134Z,21.55
2018-05-18T08:15:10.434Z,16.73
2018-05-18T08:17:38.643Z,19.65
2018-05-18T08:20:07.678Z,17.70
2018-05-18T08:22:35.949Z,17.60
2018-05-18T08:25:04.226Z,22.52
2018-05-18T08:27:32.512Z,20.90
2018-05-18T08:30:00.753Z,16.93
2018-05-18T08:32:29.765Z,16.57
2018-05-18T08:34:58.029Z,15.07
2018-05-18T08:37:26.326Z,18.23
2018-05-18T08:39:54.587Z,16.47
2018-05-18T08:42:22.827Z,15.37
2018-05-18T08:44:51.075Z,16.60
2018-05-18T08:47:19.323Z,17.50
2018-05-18T08:49:47.606Z,18.10
2018-05-18T08:52:15.850Z,17.73
2018-05-18T08:54:44.871Z,19.03
2018-05-18T08:57:13.150Z,16.30
2018-05-18T08:59:41.422Z,18.77
2018-05-18T09:02:09.707Z,22.30
2018-05-18T09:04:37.978Z,18.77
2018-05-18T09:07:06.221Z,17.47
2018-05-18T09:09:35.253Z,18.67
2018-05-18T09:12:03.522Z,17.87
2018-05-18T09:14:31.790Z,20.27
2018-05-18T09:17:00.066Z,12.77
2018-05-18T09:19:28.323Z,16.10
2018-05-18T09:21:56.624Z,16.30
2018-05-18T09:24:24.879Z,14.97
2018-05-18T09:26:53.124Z,18.97
2018-05-18T09:29:21.366Z,14.33
2018-05-18T09:31:49.621Z,15.27
2018-05-18T09:34:17.943Z,15.80
2018-05-18T09:36:46.166Z,18.77
2018-05-18T09:39:14.443Z,16.07
2018-05-18T09:41:42.670Z,13.47
2018-05-18T09:44:10.914Z,14.23
2018-05-18T09:46:39.166Z,17.90
2018-05-18T09:49:07.442Z,15.07
2018-05-18T09:51:35.698Z,18.07
2018-05-18T09:54:03.950Z,13.20
2018-05-18T09:56:32.270Z,13.73
2018-05-18T09:59:00.516Z,14.53
2018-05-18T10:01:29.553Z,14.77
2018-05-18T10:03:57.811Z,14.37
2018-05-18T10:06:26.072Z,13.43
2018-05-18T10:08:54.315Z,15.90
2018-05-18T10:11:22.551Z,14.77
2018-05-18T10:13:50.801Z,14.40
2018-05-18T10:16:19.050Z,14.17
2018-05-18T10:18:48.068Z,16.20
2018-05-18T10:21:16.358Z,20.13
2018-05-18T10:23:44.598Z,17.90
2018-05-18T10:26:13.610Z,11.73
2018-05-18T10:28:41.898Z,12.17
2018-05-18T10:31:10.143Z,18.27
2018-05-18T10:33:39.147Z,15.33
2018-05-18T10:36:07.490Z,16.17
2018-05-18T10:38:35.714Z,15.93
2018-05-18T10:41:03.991Z,16.50
2018-05-18T10:43:32.268Z,13.70
2018-05-18T10:46:00.506Z,15.77
2018-05-18T10:48:29.510Z,17.17
2018-05-18T10:50:58.527Z,19.60
2018-05-18T10:53:26.806Z,14.20
2018-05-18T10:55:55.086Z,14.33
2018-05-18T10:58:23.324Z,17.30
2018-05-18T11:00:52.337Z,13.40
2018-05-18T11:03:20.626Z,18.43
2018-05-18T11:05:49.005Z,18.23
2018-05-18T11:08:17.279Z,13.63
2018-05-18T11:10:45.551Z,15.17
2018-05-18T11:13:13.846Z,16.40
2018-05-18T11:15:42.084Z,14.87
2018-05-18T11:18:10.428Z,14.73
2018-05-18T11:20:38.760Z,16.10
2018-05-18T11:23:07.047Z,16.20
2018-05-18T11:25:35.302Z,18.77
2018-05-18T11:28:03.560Z,14.33
2018-05-18T11:30:31.804Z,13.77
2018-05-18T11:33:00.120Z,17.97
2018-05-18T11:35:28.298Z,18.00
2018-05-18T11:37:56.578Z,15.97
2018-05-18T11:40:24.831Z,18.03
2018-05-18T11:42:53.130Z,17.07
2018-05-18T11:45:21.407Z,15.37
2018-05-18T11:47:49.663Z,17.47
2018-05-18T11:50:17.912Z,18.73
2018-05-18T11:52:46.927Z,15.13
2018-05-18T11:55:15.225Z,12.60
2018-05-18T11:57:43.480Z,14.67
2018-05-18T12:00:11.723Z,14.30
2018-05-18T12:02:40.071Z,16.90
2018-05-18T12:05:08.335Z,12.63
2018-05-18T12:07:36.612Z,14.70
2018-05-18T12:10:04.858Z,15.30
2018-05-18T12:12:33.110Z,14.37
2018-05-18T12:15:02.150Z,17.87
2018-05-18T12:17:30.394Z,17.47
2018-05-18T12:20:09.051Z,17.47
2018-05-18T12:22:39.265Z,18.30
2018-05-18T12:25:07.544Z,18.83
2018-05-18T12:27:35.794Z,16.73
2018-05-18T12:30:04.043Z,18.47
2018-05-18T12:32:33.058Z,15.80
2018-05-18T12:35:01.366Z,16.90
2018-05-18T12:37:29.735Z,16.27
2018-05-18T12:39:58.080Z,16.93
2018-05-18T12:42:27.151Z,17.00
2018-05-18T12:44:55.373Z,17.50
2018-05-18T12:47:23.614Z,14.90
2018-05-18T12:49:52.695Z,15.40
2018-05-18T12:52:20.911Z,17.27
2018-05-18T12:54:49.204Z,15.00
2018-05-18T12:57:17.449Z,15.90
2018-05-18T12:59:45.747Z,16.57
2018-05-18T13:02:14.032Z,13.60
2018-05-18T13:04:42.307Z,12.40
2018-05-18T13:07:10.547Z,15.37
2018-05-18T13:09:38.851Z,16.03
2018-05-18T13:12:07.173Z,18.60
2018-05-18T13:14:35.514Z,15.10
2018-05-18T13:17:03.782Z,14.53
2018-05-18T13:19:32.044Z,17.43
2018-05-18T13:22:00.336Z,17.33
2018-05-18T13:24:28.583Z,12.07
2018-05-18T13:26:56.826Z,19.60
2018-05-18T13:29:25.153Z,11.93
2018-05-18T13:31:53.408Z,15.53
2018-05-18T13:34:21.658Z,13.03
2018-05-18T13:36:50.747Z,16.27
2018-05-18T13:39:18.974Z,12.90
2018-05-18T13:41:47.247Z,16.13
2018-05-18T13:44:15.498Z,20.87
2018-05-18T13:46:43.849Z,13.87
2018-05-18T13:49:12.078Z,14.30
2018-05-18T13:51:40.397Z,15.03
2018-05-18T13:54:08.603Z,15.13
2018-05-18T13:56:36.950Z,14.27
2018-05-18T13:59:05.170Z,16.83
2018-05-18T14:01:33.414Z,14.50
2018-05-18T14:04:02.444Z,14.70
2018-05-18T14:06:30.683Z,16.07
2018-05-18T14:08:59.698Z,17.43
2018-05-18T14:11:28.086Z,18.50
2018-05-18T14:13:56.379Z,14.73
2018-05-18T14:16:24.648Z,16.33
2018-05-18T14:18:52.886Z,19.83
2018-05-18T14:21:21.186Z,17.03
2018-05-18T14:23:49.426Z,19.17
2018-05-18T14:26:18.490Z,14.73
2018-05-18T14:28:46.743Z,15.03
2018-05-18T14:31:15.000Z,16.57
2018-05-18T14:33:43.252Z,15.27
2018-05-18T14:36:12.267Z,15.53
2018-05-18T14:38:40.559Z,14.03
2018-05-18T14:41:08.831Z,15.70
2018-05-18T14:43:37.083Z,18.00
2018-05-18T14:46:05.327Z,17.37
2018-05-18T14:48:33.663Z,15.23
2018-05-18T14:51:01.988Z,17.63
2018-05-18T14:53:30.218Z,19.53
2018-05-18T14:55:58.475Z,20.07
2018-05-18T14:58:26.724Z,18.63
2018-05-18T15:00:55.757Z,17.97
2018-05-18T15:03:24.008Z,14.77
2018-05-18T15:05:52.307Z,15.70
2018-05-18T15:08:20.560Z,15.80
2018-05-18T15:10:48.810Z,14.83
2018-05-18T15:13:17.814Z,18.90
2018-05-18T15:15:46.073Z,17.63
2018-05-18T15:18:14.395Z,18.07
2018-05-18T15:20:42.771Z,14.47
2018-05-18T15:23:11.044Z,17.53
2018-05-18T15:25:39.318Z,17.80
2018-05-18T15:28:07.554Z,17.73
2018-05-18T15:30:36.562Z,20.30
2018-05-18T15:33:04.866Z,20.83
2018-05-18T15:35:33.105Z,17.43
2018-05-18T15:38:02.118Z,19.57
2018-05-18T15:40:30.412Z,18.87
2018-05-18T15:42:58.662Z,20.00
2018-05-18T15:45:26.979Z,21.30
2018-05-18T15:47:55.238Z,21.20
2018-05-18T15:50:23.474Z,14.57
2018-05-18T15:52:52.489Z,23.67
2018-05-18T15:55:20.779Z,18.07
2018-05-18T15:57:49.054Z,17.50
2018-05-18T16:00:17.380Z,17.70
2018-05-18T16:02:45.708Z,14.50
2018-05-18T16:05:13.951Z,19.07
2018-05-18T16:07:42.962Z,15.20
2018-05-18T16:10:11.210Z,20.10
2018-05-18T16:12:40.236Z,21.90
2018-05-18T16:15:10.915Z,16.90
2018-05-18T16:17:40.677Z,21.50
2018-05-18T16:20:08.922Z,29.17
2018-05-18T16:22:37.963Z,20.67
2018-05-18T16:25:06.211Z,22.70
2018-05-18T16:27:34.476Z,21.23
2018-05-18T16:30:03.494Z,20.67
2018-05-18T16:32:31.746Z,25.33
2018-05-18T16:35:00.050Z,23.67
2018-05-18T16:37:28.328Z,20.00
2018-05-18T16:39:56.599Z,22.07
2018-05-18T16:42:24.875Z,21.43
2018-05-18T16:44:53.118Z,18.93
2018-05-18T16:47:21.380Z,17.40
2018-05-18T16:49:49.624Z,23.80
2018-05-18T16:52:17.878Z,18.27
2018-05-18T16:54:46.126Z,18.97
2018-05-18T16:57:14.391Z,24.23
2018-05-18T16:59:43.424Z,18.97
2018-05-18T17:02:11.666Z,17.43
2018-05-18T17:04:39.970Z,22.40
2018-05-18T17:07:08.227Z,19.33
2018-05-18T17:09:36.473Z,19.67
2018-05-18T17:12:05.487Z,21.93
2018-05-18T17:14:33.748Z,21.47
2018-05-18T17:17:02.768Z,18.60
2018-05-18T17:19:31.059Z,22.17
2018-05-18T17:21:59.343Z,22.50
2018-05-18T17:24:27.612Z,20.27
2018-05-18T17:26:55.888Z,18.53
2018-05-18T17:29:24.139Z,21.77
2018-05-18T17:31:52.387Z,24.17
2018-05-18T17:34:21.428Z,23.63
2018-05-18T17:36:49.682Z,21.10
2018-05-18T17:39:17.978Z,19.30
2018-05-18T17:41:46.231Z,26.17
2018-05-18T17:44:14.491Z,23.30
2018-05-18T17:46:43.630Z,22.47
2018-05-18T17:49:11.871Z,16.73
2018-05-18T17:51:40.111Z,23.10
2018-05-18T17:54:08.354Z,22.77
2018-05-18T17:56:36.626Z,22.50
2018-05-18T17:59:04.882Z,21.33
2018-05-18T18:01:33.169Z,24.43
2018-05-18T18:04:01.452Z,20.97
2018-05-18T18:06:29.722Z,23.07
2018-05-18T18:08:57.979Z,17.60
2018-05-18T18:11:26.223Z,19.70
2018-05-18T18:13:55.262Z,20.47
2018-05-18T18:16:23.506Z,21.97
2018-05-18T18:18:52.659Z,24.03
2018-05-18T18:21:20.922Z,20.70
2018-05-18T18:23:49.195Z,26.07
2018-05-18T18:26:17.471Z,21.77
2018-05-18T18:28:45.718Z,17.80
2018-05-18T18:31:14.021Z,24.73
2018-05-18T18:33:42.258Z,26.27
2018-05-18T18:36:10.554Z,20.33
2018-05-18T18:38:39.532Z,22.47
2018-05-18T18:41:07.796Z,27.17
2018-05-18T18:43:36.811Z,21.50
2018-05-18T18:46:05.062Z,19.17
2018-05-18T18:48:34.074Z,23.27
2018-05-18T18:51:02.330Z,29.53
2018-05-18T18:53:31.338Z,26.53
2018-05-18T18:55:59.601Z,23.63
2018-05-18T18:58:28.611Z,30.10
2018-05-18T19:00:56.886Z,23.20
2018-05-18T19:03:25.138Z,23.73
2018-05-18T19:05:54.154Z,26.57
2018-05-18T19:08:22.508Z,23.00
2018-05-18T19:10:50.731Z,24.83
2018-05-18T19:13:18.998Z,33.60
2018-05-18T19:15:47.304Z,23.63
2018-05-18T19:18:15.646Z,22.13
2018-05-18T19:20:43.921Z,23.87
2018-05-18T19:23:12.198Z,23.47
2018-05-18T19:25:40.453Z,27.70
2018-05-18T19:28:08.696Z,22.17
2018-05-18T19:30:36.968Z,24.53
2018-05-18T19:33:05.337Z,32.63
2018-05-18T19:35:33.678Z,24.77
2018-05-18T19:38:01.956Z,22.10
2018-05-18T19:40:30.230Z,28.93
2018-05-18T19:42:58.488Z,22.67
2018-05-18T19:45:26.738Z,24.23
2018-05-18T19:47:55.750Z,24.07
2018-05-18T19:50:24.048Z,23.30
2018-05-18T19:52:52.303Z,26.87
2018-05-18T19:55:20.611Z,21.43
2018-05-18T19:57:48.874Z,31.13
2018-05-18T20:00:17.149Z,27.47
2018-05-18T20:02:45.431Z,23.33
2018-05-18T20:05:13.685Z,27.30
2018-05-18T20:07:41.943Z,24.77
2018-05-18T20:10:10.951Z,22.03
2018-05-18T20:12:39.208Z,25.80
2018-05-18T20:15:08.312Z,24.87
2018-05-18T20:17:37.326Z,28.57
2018-05-18T20:20:05.616Z,23.87
2018-05-18T20:22:33.895Z,26.27
2018-05-18T20:25:02.204Z,24.47
2018-05-18T20:27:31.979Z,22.97
2018-05-18T20:30:00.240Z,24.43
2018-05-18T20:32:28.526Z,24.43
2018-05-18T20:34:56.780Z,21.53
2018-05-18T20:37:25.038Z,22.77
2018-05-18T20:39:54.046Z,24.70
2018-05-18T20:42:22.298Z,27.03
2018-05-18T20:44:51.344Z,23.97
2018-05-18T20:47:19.618Z,22.73
2018-05-18T20:49:47.866Z,26.37
2018-05-18T20:52:16.135Z,24.17
2018-05-18T20:54:44.482Z,31.23
2018-05-18T20:57:12.708Z,21.13
2018-05-18T20:59:40.946Z,25.23
2018-05-18T21:02:09.983Z,24.93
2018-05-18T21:04:38.228Z,26.27
2018-05-18T21:07:06.538Z,24.73
2018-05-18T21:09:34.789Z,27.40
2018-05-18T21:12:03.083Z,21.80
2018-05-18T21:14:31.335Z,22.90
2018-05-18T21:16:59.634Z,21.53
2018-05-18T21:19:27.905Z,26.37
2018-05-18T21:21:56.195Z,19.70
2018-05-18T21:24:24.441Z,24.20
2018-05-18T21:26:52.684Z,19.73
2018-05-18T21:29:21.727Z,23.77
2018-05-18T21:31:50.008Z,24.60
2018-05-18T21:34:18.271Z,22.70
2018-05-18T21:36:46.531Z,24.90
2018-05-18T21:39:14.783Z,21.80
2018-05-18T21:41:43.803Z,27.87
2018-05-18T21:44:12.065Z,18.93
2018-05-18T21:46:41.071Z,21.93
2018-05-18T21:49:09.371Z,22.40
2018-05-18T21:51:37.618Z,25.20
2018-05-18T21:54:05.876Z,25.90
2018-05-18T21:56:34.890Z,23.00
2018-05-18T21:59:03.186Z,25.40
2018-05-18T22:01:31.443Z,21.23
2018-05-18T22:03:59.743Z,22.90
2018-05-18T22:06:28.063Z,22.73
2018-05-18T22:08:56.290Z,23.17
2018-05-18T22:11:24.567Z,23.73
2018-05-18T22:13:52.839Z,23.03
2018-05-18T22:16:21.091Z,20.10
2018-05-18T22:18:49.355Z,27.03
2018-05-18T22:21:18.375Z,32.00
2018-05-18T22:23:46.663Z,22.83
2018-05-18T22:26:14.936Z,23.77
2018-05-18T22:28:43.190Z,24.93
2018-05-18T22:31:11.444Z,21.30
2018-05-18T22:33:40.462Z,24.97
2018-05-18T22:36:08.719Z,20.77
2018-05-18T22:38:37.897Z,25.20
2018-05-18T22:41:06.129Z,22.93
2018-05-18T22:43:34.396Z,18.87
2018-05-18T22:46:02.679Z,24.00
2018-05-18T22:48:30.953Z,17.90
2018-05-18T22:50:59.264Z,22.23
2018-05-18T22:53:27.459Z,20.00
2018-05-18T22:55:56.492Z,24.40
2018-05-18T22:58:24.777Z,19.80
2018-05-18T23:00:53.052Z,24.73
2018-05-18T23:03:21.301Z,28.47
2018-05-18T23:05:49.565Z,26.03
2018-05-18T23:08:17.811Z,25.80
2018-05-18T23:10:46.161Z,26.67
2018-05-18T23:13:14.417Z,23.47
2018-05-18T23:15:42.781Z,29.57
2018-05-18T23:18:10.974Z,23.70
2018-05-18T23:20:39.242Z,27.50
2018-05-18T23:23:07.523Z,27.53
2018-05-18T23:25:35.830Z,26.43
2018-05-18T23:28:04.057Z,24.60
2018-05-18T23:30:32.302Z,23.77
2018-05-18T23:33:01.393Z,27.60
2018-05-18T23:35:29.722Z,21.40
2018-05-18T23:37:57.974Z,21.43
2018-05-18T23:40:26.276Z,21.00
2018-05-18T23:42:54.675Z,23.13
2018-05-18T23:45:22.931Z,21.87
2018-05-18T23:47:51.179Z,23.93
2018-05-18T23:50:19.469Z,29.67
2018-05-18T23:52:47.722Z,24.83
2018-05-18T23:55:16.743Z,27.10
2018-05-18T23:57:44.994Z,30.00
